Temp: 18.3°C   Baro: 1015.4mb
  Wind: 6.0mph   Dir: S (189°)
  Rain: 0.0mm (0.0mm/hr)
  Solar: 584W/m2  Hum: 68%
 
Bath Spa Weather Station Historical Data
Daily Summary for July 05, 2020 Units:  Both    English   Metric
Daily Weekly Monthly Yearly Custom
  High: Low: Average:
Temperature: 62.9 °F /  17.2 °C 56 °F /  13.3 °C 59.8 °F /  15.4 °C
Dew Point: 58.8 °F /  14.9 °C 48.9 °F /  9.4 °C 52.9 °F /  11.6 °C
Humidity: 93% 64.6% 78%
Wind Speed: 18.2mph /  29.3km/h - 11.2mph /  18km/h
Wind Gust: 33mph /  53.1km/h - -
Wind- - West
Pressure: 29.99 in /  1015.5 hPa 29.78 in /  1008.4 hPa -
Precipitation: 0.08 in /  2.03 mm    
Historical Graphs
 
 
Tabular Data for July 05, 2020
Time Temperature Dew Point Pressure Wind Wind Speed Wind Gust Humidity Rainfall Rate (Hourly) solar
00:04 61.5 °F /  16.4 °C 57.9 °F /  14.4 °C 29.82in /  1009.7hPa WSW 9.4mph /  15.1km/h 17mph /  27.4km/h 88% 0.00in /  0mm 0 W/m2
00:09 61.6 °F /  16.4 °C 58 °F /  14.4 °C 29.82in /  1009.7hPa SW 11mph /  17.7km/h 16mph /  25.7km/h 88% 0.00in /  0mm 0 W/m2
00:14 61.6 °F /  16.4 °C 58 °F /  14.4 °C 29.82in /  1009.7hPa SW 8.2mph /  13.2km/h 14mph /  22.5km/h 88% 0.00in /  0mm 0 W/m2
00:19 61.7 °F /  16.5 °C 58.1 °F /  14.5 °C 29.82in /  1009.7hPa SW 13.3mph /  21.4km/h 22mph /  35.4km/h 88% 0.00in /  0mm 0 W/m2
00:24 61.7 °F /  16.5 °C 58.1 °F /  14.5 °C 29.82in /  1009.7hPa WSW 7.7mph /  12.4km/h 17mph /  27.4km/h 88% 0.00in /  0mm 0 W/m2
00:29 61.8 °F /  16.6 °C 58.2 °F /  14.6 °C 29.82in /  1009.7hPa WSW 6.6mph /  10.6km/h 15mph /  24.1km/h 88% 0.00in /  0mm 0 W/m2
00:34 61.9 °F /  16.6 °C 58.3 °F /  14.6 °C 29.81in /  1009.4hPa WSW 9.2mph /  14.8km/h 16mph /  25.7km/h 88% 0.00in /  0mm 0 W/m2
00:39 61.9 °F /  16.6 °C 58.3 °F /  14.6 °C 29.81in /  1009.4hPa SW 6.6mph /  10.6km/h 17mph /  27.4km/h 88% 0.00in /  0mm 0 W/m2
00:44 62.1 °F /  16.7 °C 58.1 °F /  14.5 °C 29.80in /  1009hPa SW 6.3mph /  10.1km/h 15mph /  24.1km/h 87.2% 0.00in /  0mm 0 W/m2
00:49 62.1 °F /  16.7 °C 58.3 °F /  14.6 °C 29.80in /  1009hPa WSW 9.5mph /  15.3km/h 15mph /  24.1km/h 87.5% 0.00in /  0mm 0 W/m2
00:54 62.1 °F /  16.7 °C 58.4 °F /  14.7 °C 29.80in /  1009hPa SW 9.6mph /  15.4km/h 14mph /  22.5km/h 87.8% 0.00in /  0mm 0 W/m2
00:59 62.1 °F /  16.7 °C 58.5 °F /  14.7 °C 29.80in /  1009hPa SW 7.6mph /  12.2km/h 17mph /  27.4km/h 88% 0.00in /  0mm 0 W/m2
01:04 62.1 °F /  16.7 °C 58.5 °F /  14.7 °C 29.80in /  1009hPa SW 12mph /  19.3km/h 21mph /  33.8km/h 88% 0.00in /  0mm 0 W/m2
01:09 62.1 °F /  16.7 °C 58.5 °F /  14.7 °C 29.80in /  1009hPa SW 7.2mph /  11.6km/h 17mph /  27.4km/h 88% 0.00in /  0mm 0 W/m2
01:14 62.1 °F /  16.7 °C 58.5 °F /  14.7 °C 29.80in /  1009hPa SW 9.2mph /  14.8km/h 20mph /  32.2km/h 88% 0.00in /  0mm 0 W/m2
01:19 62.2 °F /  16.8 °C 58.6 °F /  14.8 °C 29.80in /  1009hPa SW 11.3mph /  18.2km/h 19mph /  30.6km/h 88% 0.00in /  0mm 0 W/m2
01:24 62.2 °F /  16.8 °C 58.6 °F /  14.8 °C 29.80in /  1009hPa WSW 10.6mph /  17.1km/h 20mph /  32.2km/h 88% 0.00in /  0mm 0 W/m2
01:29 62.2 °F /  16.8 °C 58.6 °F /  14.8 °C 29.79in /  1008.7hPa WSW 7.4mph /  11.9km/h 16mph /  25.7km/h 88% 0.00in /  0mm 0 W/m2
01:34 62.2 °F /  16.8 °C 58.6 °F /  14.8 °C 29.79in /  1008.7hPa SW 10.8mph /  17.4km/h 16mph /  25.7km/h 88% 0.00in /  0mm 0 W/m2
01:39 62.2 °F /  16.8 °C 58.6 °F /  14.8 °C 29.79in /  1008.7hPa WSW 9.3mph /  15km/h 17mph /  27.4km/h 88% 0.00in /  0mm 0 W/m2
01:44 62.1 °F /  16.7 °C 58.5 °F /  14.7 °C 29.79in /  1008.7hPa WSW 10.5mph /  16.9km/h 16mph /  25.7km/h 88% 0.00in /  0mm 0 W/m2
01:49 62 °F /  16.7 °C 58.6 °F /  14.8 °C 29.79in /  1008.7hPa SW 10mph /  16.1km/h 18mph /  29km/h 88.8% 0.00in /  0mm 0 W/m2
01:54 61.8 °F /  16.6 °C 58.5 °F /  14.7 °C 29.79in /  1008.7hPa WSW 8.6mph /  13.8km/h 17mph /  27.4km/h 89% 0.00in /  0mm 0 W/m2
01:59 61.5 °F /  16.4 °C 58.3 °F /  14.6 °C 29.79in /  1008.7hPa WSW 5.9mph /  9.5km/h 14mph /  22.5km/h 89% 0.00in /  0mm 0 W/m2
02:04 61.3 °F /  16.3 °C 58.5 °F /  14.7 °C 29.79in /  1008.7hPa SW 8mph /  12.9km/h 14mph /  22.5km/h 90% 0.00in /  0mm 0 W/m2
02:09 61.2 °F /  16.2 °C 58.3 °F /  14.6 °C 29.79in /  1008.7hPa WSW 5.7mph /  9.2km/h 11mph /  17.7km/h 90% 0.01in /  0.25mm 0 W/m2
02:14 60.9 °F /  16.1 °C 58.2 °F /  14.6 °C 29.79in /  1008.7hPa WSW 7.8mph /  12.6km/h 14mph /  22.5km/h 90.8% 0.02in /  0.51mm 0 W/m2
02:19 60.7 °F /  15.9 °C 58 °F /  14.4 °C 29.79in /  1008.7hPa SW 5mph /  8km/h 11mph /  17.7km/h 91% 0.02in /  0.51mm 0 W/m2
02:24 60.6 °F /  15.9 °C 57.9 °F /  14.4 °C 29.79in /  1008.7hPa SW 6.4mph /  10.3km/h 13mph /  20.9km/h 91% 0.02in /  0.51mm 0 W/m2
02:29 60.6 °F /  15.9 °C 58.2 °F /  14.6 °C 29.79in /  1008.7hPa WSW 4.4mph /  7.1km/h 13mph /  20.9km/h 91.8% 0.02in /  0.51mm 0 W/m2
02:34 60.7 °F /  15.9 °C 58.4 °F /  14.7 °C 29.79in /  1008.7hPa SW 5.8mph /  9.3km/h 13mph /  20.9km/h 92% 0.02in /  0.51mm 0 W/m2
02:39 60.8 °F /  16 °C 58.5 °F /  14.7 °C 29.79in /  1008.7hPa SW 5.8mph /  9.3km/h 13mph /  20.9km/h 92% 0.02in /  0.51mm 0 W/m2
02:44 60.9 °F /  16.1 °C 58.6 °F /  14.8 °C 29.78in /  1008.4hPa WSW 9.8mph /  15.8km/h 15mph /  24.1km/h 92% 0.02in /  0.51mm 0 W/m2
02:49 61 °F /  16.1 °C 58.6 °F /  14.8 °C 29.78in /  1008.4hPa SW 6.8mph /  10.9km/h 13mph /  20.9km/h 92% 0.02in /  0.51mm 0 W/m2
02:54 60.9 °F /  16.1 °C 58.6 °F /  14.8 °C 29.78in /  1008.4hPa WNW 7mph /  11.3km/h 15mph /  24.1km/h 92% 0.02in /  0.51mm 0 W/m2
02:59 60.9 °F /  16.1 °C 58.8 °F /  14.9 °C 29.78in /  1008.4hPa WSW 9mph /  14.5km/h 15mph /  24.1km/h 92.6% 0.02in /  0.51mm 0 W/m2
03:04 60.9 °F /  16.1 °C 58.7 °F /  14.8 °C 29.78in /  1008.4hPa West 7.6mph /  12.2km/h 18mph /  29km/h 92.4% 0.02in /  0.51mm 0 W/m2
03:09 61 °F /  16.1 °C 58.6 °F /  14.8 °C 29.78in /  1008.4hPa West 9.8mph /  15.8km/h 15mph /  24.1km/h 92% 0.02in /  0.51mm 0 W/m2
03:14 61 °F /  16.1 °C 58.6 °F /  14.8 °C 29.78in /  1008.4hPa West 6.3mph /  10.1km/h 13mph /  20.9km/h 92% 0.02in /  0.51mm 0 W/m2
03:19 61 °F /  16.1 °C 58.6 °F /  14.8 °C 29.78in /  1008.4hPa WSW 8.4mph /  13.5km/h 18mph /  29km/h 92% 0.02in /  0.51mm 0 W/m2
03:24 61.2 °F /  16.2 °C 58.8 °F /  14.9 °C 29.78in /  1008.4hPa West 8.8mph /  14.2km/h 18mph /  29km/h 92% 0.01in /  0.25mm 0 W/m2
03:29 61.2 °F /  16.2 °C 58.8 °F /  14.9 °C 29.78in /  1008.4hPa WSW 6.9mph /  11.1km/h 14mph /  22.5km/h 92% 0.01in /  0.25mm 0 W/m2
03:34 61.2 °F /  16.2 °C 58.6 °F /  14.8 °C 29.78in /  1008.4hPa West 7.6mph /  12.2km/h 14mph /  22.5km/h 91.2% 0.01in /  0.25mm 0 W/m2
03:39 61.2 °F /  16.2 °C 58.5 °F /  14.7 °C 29.78in /  1008.4hPa West 9.6mph /  15.4km/h 15mph /  24.1km/h 91% 0.01in /  0.25mm 0 W/m2
03:44 61.2 °F /  16.2 °C 58.5 °F /  14.7 °C 29.78in /  1008.4hPa West 8mph /  12.9km/h 14mph /  22.5km/h 91% 0.01in /  0.25mm 0 W/m2
03:49 61.2 °F /  16.2 °C 58.5 °F /  14.7 °C 29.78in /  1008.4hPa WSW 8.8mph /  14.2km/h 15mph /  24.1km/h 91% 0.01in /  0.25mm 0 W/m2
03:54 61.2 °F /  16.2 °C 58.5 °F /  14.7 °C 29.78in /  1008.4hPa West 10.6mph /  17.1km/h 18mph /  29km/h 91% 0.01in /  0.25mm 0 W/m2
03:59 61.2 °F /  16.2 °C 58.5 °F /  14.7 °C 29.78in /  1008.4hPa West 9.6mph /  15.4km/h 16mph /  25.7km/h 91% 0.01in /  0.25mm 0 W/m2
04:04 61 °F /  16.1 °C 58.3 °F /  14.6 °C 29.78in /  1008.4hPa West 7.5mph /  12.1km/h 17mph /  27.4km/h 91% 0.01in /  0.25mm 0 W/m2
04:09 60.9 °F /  16.1 °C 58.2 °F /  14.6 °C 29.78in /  1008.4hPa West 8.2mph /  13.2km/h 15mph /  24.1km/h 91% 0.01in /  0.25mm 0 W/m2
04:13 60.8 °F /  16 °C 58.1 °F /  14.5 °C 29.78in /  1008.4hPa West 8.8mph /  14.2km/h 15mph /  24.1km/h 91% 0.01in /  0.25mm 0 W/m2
04:19 60.6 °F /  15.9 °C 58.1 °F /  14.5 °C 29.78in /  1008.4hPa West 5.6mph /  9km/h 14mph /  22.5km/h 91.4% 0.01in /  0.25mm 0 W/m2
04:29 60.6 °F /  15.9 °C 58.3 °F /  14.6 °C 29.78in /  1008.4hPa West 5.3mph /  8.5km/h 13mph /  20.9km/h 92% 0.00in /  0mm 0 W/m2
04:34 60.5 °F /  15.8 °C 58.2 °F /  14.6 °C 29.78in /  1008.4hPa WNW 7mph /  11.3km/h 13mph /  20.9km/h 92% 0.00in /  0mm 0 W/m2
04:39 60.4 °F /  15.8 °C 58.1 °F /  14.5 °C 29.78in /  1008.4hPa WNW 4.6mph /  7.4km/h 10mph /  16.1km/h 92% 0.01in /  0.25mm 0 W/m2
04:44 60.4 °F /  15.8 °C 58.1 °F /  14.5 °C 29.78in /  1008.4hPa West 5.6mph /  9km/h 10mph /  16.1km/h 92% 0.02in /  0.51mm 0 W/m2
04:49 60.3 °F /  15.7 °C 58.1 °F /  14.5 °C 29.78in /  1008.4hPa WNW 6.8mph /  10.9km/h 11mph /  17.7km/h 92.6% 0.02in /  0.51mm 0 W/m2
04:54 60.1 °F /  15.6 °C 58.1 °F /  14.5 °C 29.78in /  1008.4hPa WNW 7.2mph /  11.6km/h 10mph /  16.1km/h 93% 0.04in /  1.02mm 0 W/m2
04:59 60.1 °F /  15.6 °C 58.1 °F /  14.5 °C 29.78in /  1008.4hPa WNW 13.2mph /  21.2km/h 20mph /  32.2km/h 93% 0.04in /  1.02mm 0 W/m2
05:04 59.9 °F /  15.5 °C 57.9 °F /  14.4 °C 29.78in /  1008.4hPa WNW 10.8mph /  17.4km/h 20mph /  32.2km/h 93% 0.04in /  1.02mm 0 W/m2
05:09 59.7 °F /  15.4 °C 57.7 °F /  14.3 °C 29.78in /  1008.4hPa WNW 10.6mph /  17.1km/h 18mph /  29km/h 93% 0.04in /  1.02mm 0 W/m2
05:14 59.5 °F /  15.3 °C 57.6 °F /  14.2 °C 29.79in /  1008.7hPa WNW 11.4mph /  18.3km/h 21mph /  33.8km/h 93% 0.04in /  1.02mm 5 W/m2
05:19 59.5 °F /  15.3 °C 57.6 °F /  14.2 °C 29.79in /  1008.7hPa West 8.8mph /  14.2km/h 21mph /  33.8km/h 93% 0.04in /  1.02mm 11 W/m2
05:24 59.5 °F /  15.3 °C 57.6 °F /  14.2 °C 29.78in /  1008.4hPa West 11.6mph /  18.7km/h 20mph /  32.2km/h 93% 0.05in /  1.27mm 11 W/m2
05:29 59.5 °F /  15.3 °C 57.6 °F /  14.2 °C 29.78in /  1008.4hPa WSW 12.2mph /  19.6km/h 19mph /  30.6km/h 93% 0.05in /  1.27mm 12 W/m2
05:39 59.8 °F /  15.4 °C 57.5 °F /  14.2 °C 29.79in /  1008.7hPa West 12.5mph /  20.1km/h 28mph /  45.1km/h 92% 0.04in /  1.02mm 16 W/m2
05:44 59.7 °F /  15.4 °C 57 °F /  13.9 °C 29.79in /  1008.7hPa West 14.1mph /  22.7km/h 24mph /  38.6km/h 91% 0.04in /  1.02mm 23 W/m2
05:49 59.7 °F /  15.4 °C 57 °F /  13.9 °C 29.79in /  1008.7hPa West 11mph /  17.7km/h 21mph /  33.8km/h 91% 0.03in /  0.76mm 19 W/m2
05:54 59.7 °F /  15.4 °C 56.9 °F /  13.8 °C 29.79in /  1008.7hPa West 14.4mph /  23.2km/h 24mph /  38.6km/h 90.6% 0.02in /  0.51mm 19 W/m2
05:59 59.6 °F /  15.3 °C 56.7 °F /  13.7 °C 29.79in /  1008.7hPa West 8mph /  12.9km/h 23mph /  37km/h 90% 0.01in /  0.25mm 25 W/m2
06:04 59.4 °F /  15.2 °C 56.6 °F /  13.7 °C 29.80in /  1009hPa NW 15.2mph /  24.5km/h 29mph /  46.7km/h 90.2% 0.01in /  0.25mm 40 W/m2
06:09 58.7 °F /  14.8 °C 55.9 °F /  13.3 °C 29.80in /  1009hPa West 14mph /  22.5km/h 29mph /  46.7km/h 90.8% 0.01in /  0.25mm 28 W/m2
06:14 58.5 °F /  14.7 °C 55.8 °F /  13.2 °C 29.80in /  1009hPa WNW 11.6mph /  18.7km/h 29mph /  46.7km/h 91% 0.01in /  0.25mm 40 W/m2
06:19 58.3 °F /  14.6 °C 55.6 °F /  13.1 °C 29.80in /  1009hPa WNW 12.4mph /  20km/h 24mph /  38.6km/h 91% 0.01in /  0.25mm 28 W/m2
06:24 58.3 °F /  14.6 °C 55.6 °F /  13.1 °C 29.80in /  1009hPa WNW 14.8mph /  23.8km/h 26mph /  41.8km/h 91% 0.00in /  0mm 35 W/m2
06:29 58.3 °F /  14.6 °C 55.6 °F /  13.1 °C 29.80in /  1009hPa WNW 11.5mph /  18.5km/h 23mph /  37km/h 91% 0.00in /  0mm 35 W/m2
06:34 58.2 °F /  14.6 °C 55.3 °F /  12.9 °C 29.81in /  1009.4hPa WNW 12.8mph /  20.6km/h 26mph /  41.8km/h 90.5% 0.00in /  0mm 54 W/m2
06:39 58.1 °F /  14.5 °C 55.2 °F /  12.9 °C 29.81in /  1009.4hPa WNW 14.5mph /  23.3km/h 21mph /  33.8km/h 90% 0.00in /  0mm 72 W/m2
06:44 58.3 °F /  14.6 °C 55.1 °F /  12.8 °C 29.81in /  1009.4hPa West 11.4mph /  18.3km/h 23mph /  37km/h 89.4% 0.00in /  0mm 69 W/m2
06:49 58.1 °F /  14.5 °C 54.8 °F /  12.7 °C 29.81in /  1009.4hPa WNW 11.3mph /  18.2km/h 21mph /  33.8km/h 88.6% 0.00in /  0mm 69 W/m2
06:54 58.1 °F /  14.5 °C 54.5 °F /  12.5 °C 29.82in /  1009.7hPa WNW 8mph /  12.9km/h 16mph /  25.7km/h 88% 0.00in /  0mm 76 W/m2
06:59 57.9 °F /  14.4 °C 54.3 °F /  12.4 °C 29.82in /  1009.7hPa West 8.2mph /  13.2km/h 23mph /  37km/h 87.8% 0.00in /  0mm 88 W/m2
07:04 58 °F /  14.4 °C 54.2 °F /  12.3 °C 29.82in /  1009.7hPa West 8.2mph /  13.2km/h 23mph /  37km/h 87% 0.00in /  0mm 81 W/m2
07:09 58 °F /  14.4 °C 54.2 °F /  12.3 °C 29.82in /  1009.7hPa WNW 9mph /  14.5km/h 24mph /  38.6km/h 87% 0.00in /  0mm 116 W/m2
07:19 58.3 °F /  14.6 °C 54.1 °F /  12.3 °C 29.82in /  1009.7hPa WNW 10.3mph /  16.6km/h 22mph /  35.4km/h 86% 0.00in /  0mm 97 W/m2
07:24 58.3 °F /  14.6 °C 54.1 °F /  12.3 °C 29.82in /  1009.7hPa WNW 10.6mph /  17.1km/h 26mph /  41.8km/h 86% 0.00in /  0mm 102 W/m2
07:29 58.4 °F /  14.7 °C 54.2 °F /  12.3 °C 29.82in /  1009.7hPa West 8mph /  12.9km/h 23mph /  37km/h 86% 0.00in /  0mm 105 W/m2
07:34 58.4 °F /  14.7 °C 54.2 °F /  12.3 °C 29.83in /  1010hPa West 8.8mph /  14.2km/h 22mph /  35.4km/h 86% 0.00in /  0mm 137 W/m2
07:44 58.5 °F /  14.7 °C 54.1 °F /  12.3 °C 29.83in /  1010hPa WNW 8.4mph /  13.5km/h 21mph /  33.8km/h 85.4% 0.00in /  0mm 156 W/m2
07:49 58.5 °F /  14.7 °C 54.1 °F /  12.3 °C 29.83in /  1010hPa West 12mph /  19.3km/h 21mph /  33.8km/h 85.4% 0.00in /  0mm 134 W/m2
07:54 58.5 °F /  14.7 °C 54 °F /  12.2 °C 29.83in /  1010hPa West 13.2mph /  21.2km/h 21mph /  33.8km/h 85% 0.00in /  0mm 176 W/m2
07:59 58.6 °F /  14.8 °C 54.1 °F /  12.3 °C 29.83in /  1010hPa WNW 10.2mph /  16.4km/h 20mph /  32.2km/h 85% 0.00in /  0mm 411 W/m2
08:04 59 °F /  15 °C 54.2 °F /  12.3 °C 29.83in /  1010hPa West 10.4mph /  16.7km/h 20mph /  32.2km/h 84.4% 0.00in /  0mm 230 W/m2
08:09 58.9 °F /  14.9 °C 54 °F /  12.2 °C 29.83in /  1010hPa West 11.6mph /  18.7km/h 27mph /  43.5km/h 84% 0.00in /  0mm 190 W/m2
08:14 59.2 °F /  15.1 °C 54.3 °F /  12.4 °C 29.83in /  1010hPa West 11.4mph /  18.3km/h 20mph /  32.2km/h 84% 0.00in /  0mm 464 W/m2
08:19 59.4 °F /  15.2 °C 54.5 °F /  12.5 °C 29.83in /  1010hPa WNW 11.8mph /  19km/h 18mph /  29km/h 84% 0.00in /  0mm 248 W/m2
08:24 59.2 °F /  15.1 °C 54 °F /  12.2 °C 29.83in /  1010hPa WNW 11mph /  17.7km/h 19mph /  30.6km/h 83% 0.00in /  0mm 172 W/m2
08:29 58.9 °F /  14.9 °C 53.8 °F /  12.1 °C 29.84in /  1010.4hPa West 14mph /  22.5km/h 26mph /  41.8km/h 83.4% 0.00in /  0mm 220 W/m2
08:34 59 °F /  15 °C 53.6 °F /  12 °C 29.84in /  1010.4hPa WNW 12mph /  19.3km/h 26mph /  41.8km/h 82.4% 0.00in /  0mm 199 W/m2
08:39 58.8 °F /  14.9 °C 53.6 °F /  12 °C 29.84in /  1010.4hPa WNW 11.4mph /  18.3km/h 27mph /  43.5km/h 82.8% 0.00in /  0mm 246 W/m2
08:44 59.1 °F /  15.1 °C 53.6 °F /  12 °C 29.84in /  1010.4hPa WNW 13.3mph /  21.4km/h 27mph /  43.5km/h 82% 0.00in /  0mm 269 W/m2
08:49 59.2 °F /  15.1 °C 53.6 °F /  12 °C 29.84in /  1010.4hPa WNW 10.8mph /  17.4km/h 21mph /  33.8km/h 82% 0.00in /  0mm 156 W/m2
08:54 59 °F /  15 °C 53.6 °F /  12 °C 29.85in /  1010.7hPa West 10.6mph /  17.1km/h 21mph /  33.8km/h 82% 0.00in /  0mm 200 W/m2
08:59 58.7 °F /  14.8 °C 53.2 °F /  11.8 °C 29.85in /  1010.7hPa West 11.4mph /  18.3km/h 20mph /  32.2km/h 81.6% 0.00in /  0mm 169 W/m2
09:04 58.8 °F /  14.9 °C 52.9 °F /  11.6 °C 29.85in /  1010.7hPa West 13.2mph /  21.2km/h 22mph /  35.4km/h 80.6% 0.00in /  0mm 603 W/m2
09:09 59.4 °F /  15.2 °C 52.8 °F /  11.6 °C 29.85in /  1010.7hPa West 16mph /  25.7km/h 26mph /  41.8km/h 78.8% 0.00in /  0mm 626 W/m2
09:14 59.5 °F /  15.3 °C 52.3 °F /  11.3 °C 29.86in /  1011.1hPa NW 11.2mph /  18km/h 25mph /  40.2km/h 77% 0.00in /  0mm 216 W/m2
09:19 59.4 °F /  15.2 °C 51.8 °F /  11 °C 29.85in /  1010.7hPa West 10.2mph /  16.4km/h 29mph /  46.7km/h 76% 0.00in /  0mm 253 W/m2
09:24 59.5 °F /  15.3 °C 52 °F /  11.1 °C 29.85in /  1010.7hPa WNW 12mph /  19.3km/h 20mph /  32.2km/h 76% 0.00in /  0mm 290 W/m2
09:29 59.4 °F /  15.2 °C 52.1 °F /  11.2 °C 29.86in /  1011.1hPa WNW 10mph /  16.1km/h 24mph /  38.6km/h 76.6% 0.00in /  0mm 179 W/m2
09:34 59.4 °F /  15.2 °C 52.4 °F /  11.3 °C 29.86in /  1011.1hPa NW 11.8mph /  19km/h 24mph /  38.6km/h 77.6% 0.00in /  0mm 227 W/m2
09:39 59.3 °F /  15.2 °C 51.2 °F /  10.7 °C 29.87in /  1011.4hPa West 12.4mph /  20km/h 25mph /  40.2km/h 74.4% 0.00in /  0mm 640 W/m2
09:44 59.9 °F /  15.5 °C 51.1 °F /  10.6 °C 29.86in /  1011.1hPa NW 11.9mph /  19.2km/h 21mph /  33.8km/h 72.6% 0.00in /  0mm 605 W/m2
09:49 60.4 °F /  15.8 °C 51.2 °F /  10.7 °C 29.86in /  1011.1hPa WNW 12mph /  19.3km/h 23mph /  37km/h 71.4% 0.00in /  0mm 605 W/m2
09:54 60.1 °F /  15.6 °C 51.1 °F /  10.6 °C 29.87in /  1011.4hPa WNW 8.2mph /  13.2km/h 17mph /  27.4km/h 72% 0.00in /  0mm 250 W/m2
09:59 59.9 °F /  15.5 °C 50.6 °F /  10.3 °C 29.87in /  1011.4hPa WNW 10.2mph /  16.4km/h 18mph /  29km/h 71.2% 0.00in /  0mm 315 W/m2
10:04 59.9 °F /  15.5 °C 50.5 °F /  10.3 °C 29.87in /  1011.4hPa West 12.6mph /  20.3km/h 17mph /  27.4km/h 71% 0.00in /  0mm 276 W/m2
10:09 59.7 °F /  15.4 °C 50.5 °F /  10.3 °C 29.87in /  1011.4hPa WNW 11.7mph /  18.8km/h 25mph /  40.2km/h 71.4% 0.00in /  0mm 202 W/m2
10:14 59.6 °F /  15.3 °C 50.9 °F /  10.5 °C 29.87in /  1011.4hPa WNW 9.8mph /  15.8km/h 25mph /  40.2km/h 72.8% 0.00in /  0mm 297 W/m2
10:19 59.8 °F /  15.4 °C 51.1 °F /  10.6 °C 29.87in /  1011.4hPa WNW 12.4mph /  20km/h 21mph /  33.8km/h 73% 0.00in /  0mm 749 W/m2
10:24 60.4 °F /  15.8 °C 51.4 °F /  10.8 °C 29.87in /  1011.4hPa West 11mph /  17.7km/h 21mph /  33.8km/h 72% 0.00in /  0mm 823 W/m2
10:29 61.2 °F /  16.2 °C 51.5 °F /  10.8 °C 29.87in /  1011.4hPa West 11.8mph /  19km/h 19mph /  30.6km/h 70.6% 0.00in /  0mm 823 W/m2
10:34 61.1 °F /  16.2 °C 50.4 °F /  10.2 °C 29.88in /  1011.7hPa WNW 12.5mph /  20.1km/h 19mph /  30.6km/h 68% 0.00in /  0mm 810 W/m2
10:39 61.2 °F /  16.2 °C 50.7 °F /  10.4 °C 29.88in /  1011.7hPa WNW 10.6mph /  17.1km/h 18mph /  29km/h 68.6% 0.00in /  0mm 309 W/m2
10:44 60.9 °F /  16.1 °C 50.4 °F /  10.2 °C 29.88in /  1011.7hPa West 12.4mph /  20km/h 24mph /  38.6km/h 68.4% 0.00in /  0mm 445 W/m2
10:49 60.2 °F /  15.7 °C 49.8 °F /  9.9 °C 29.88in /  1011.7hPa WNW 14.1mph /  22.7km/h 24mph /  38.6km/h 68.8% 0.00in /  0mm 756 W/m2
10:54 60.5 °F /  15.8 °C 49.8 °F /  9.9 °C 29.88in /  1011.7hPa West 11.4mph /  18.3km/h 26mph /  41.8km/h 67.6% 0.00in /  0mm 810 W/m2
10:59 61.1 °F /  16.2 °C 50.2 °F /  10.1 °C 29.88in /  1011.7hPa WNW 11mph /  17.7km/h 26mph /  41.8km/h 67.4% 0.00in /  0mm 1016 W/m2
11:04 60.6 °F /  15.9 °C 50.5 °F /  10.3 °C 29.88in /  1011.7hPa WNW 10.8mph /  17.4km/h 25mph /  40.2km/h 69.4% 0.00in /  0mm 236 W/m2
11:09 59.6 °F /  15.3 °C 50.1 °F /  10.1 °C 29.88in /  1011.7hPa WNW 14.4mph /  23.2km/h 21mph /  33.8km/h 70.4% 0.00in /  0mm 251 W/m2
11:14 59.8 °F /  15.4 °C 50.2 °F /  10.1 °C 29.88in /  1011.7hPa WNW 11.2mph /  18km/h 24mph /  38.6km/h 70.4% 0.00in /  0mm 216 W/m2
11:19 60.5 °F /  15.8 °C 50.7 °F /  10.4 °C 29.88in /  1011.7hPa West 10.8mph /  17.4km/h 20mph /  32.2km/h 70.2% 0.00in /  0mm 1000 W/m2
11:24 60.7 °F /  15.9 °C 50.8 °F /  10.4 °C 29.88in /  1011.7hPa WNW 12.6mph /  20.3km/h 23mph /  37km/h 69.8% 0.00in /  0mm 1000 W/m2
11:29 60.2 °F /  15.7 °C 50.9 °F /  10.5 °C 29.88in /  1011.7hPa WNW 16.2mph /  26.1km/h 21mph /  33.8km/h 71.2% 0.00in /  0mm 281 W/m2
11:34 60.1 °F /  15.6 °C 51.2 °F /  10.7 °C 29.89in /  1012.1hPa WNW 10.7mph /  17.2km/h 24mph /  38.6km/h 72.4% 0.00in /  0mm 330 W/m2
11:39 60.3 °F /  15.7 °C 51.5 °F /  10.8 °C 29.89in /  1012.1hPa WNW 12.3mph /  19.8km/h 24mph /  38.6km/h 72.8% 0.00in /  0mm 954 W/m2
11:44 60.6 °F /  15.9 °C 51.6 °F /  10.9 °C 29.89in /  1012.1hPa West 14.4mph /  23.2km/h 26mph /  41.8km/h 72% 0.00in /  0mm 1053 W/m2
11:49 61.3 °F /  16.3 °C 51.7 °F /  10.9 °C 29.89in /  1012.1hPa WNW 17.1mph /  27.5km/h 27mph /  43.5km/h 70.8% 0.00in /  0mm 1065 W/m2
11:54 61.6 °F /  16.4 °C 52 °F /  11.1 °C 29.89in /  1012.1hPa West 15.8mph /  25.4km/h 23mph /  37km/h 71% 0.00in /  0mm 380 W/m2
11:59 61 °F /  16.1 °C 51.1 °F /  10.6 °C 29.89in /  1012.1hPa West 12.8mph /  20.6km/h 26mph /  41.8km/h 70.2% 0.00in /  0mm 318 W/m2
12:04 61.1 °F /  16.2 °C 50.7 °F /  10.4 °C 29.90in /  1012.4hPa WSW 14.6mph /  23.5km/h 31mph /  49.9km/h 68.6% 0.00in /  0mm 436 W/m2
12:09 61 °F /  16.1 °C 50.6 °F /  10.3 °C 29.90in /  1012.4hPa West 6.7mph /  10.8km/h 19mph /  30.6km/h 68.6% 0.00in /  0mm 846 W/m2
12:14 61 °F /  16.1 °C 50.8 °F /  10.4 °C 29.90in /  1012.4hPa WNW 13.7mph /  22km/h 27mph /  43.5km/h 69.2% 0.00in /  0mm 334 W/m2
12:19 60.3 °F /  15.7 °C 51.1 °F /  10.6 °C 29.90in /  1012.4hPa West 13mph /  20.9km/h 24mph /  38.6km/h 71.4% 0.00in /  0mm 462 W/m2
12:24 60.1 °F /  15.6 °C 51.1 °F /  10.6 °C 29.90in /  1012.4hPa West 14.8mph /  23.8km/h 22mph /  35.4km/h 71.8% 0.00in /  0mm 316 W/m2
12:29 60.1 °F /  15.6 °C 50.9 °F /  10.5 °C 29.90in /  1012.4hPa WNW 12mph /  19.3km/h 23mph /  37km/h 71.6% 0.00in /  0mm 267 W/m2
12:34 60.8 °F /  16 °C 51 °F /  10.6 °C 29.90in /  1012.4hPa West 15.2mph /  24.5km/h 29mph /  46.7km/h 70% 0.00in /  0mm 563 W/m2
12:39 61 °F /  16.1 °C 50.7 °F /  10.4 °C 29.91in /  1012.8hPa WNW 12mph /  19.3km/h 29mph /  46.7km/h 69% 0.00in /  0mm 322 W/m2
12:44 60.6 °F /  15.9 °C 50.7 °F /  10.4 °C 29.91in /  1012.8hPa WNW 15.8mph /  25.4km/h 28mph /  45.1km/h 70% 0.00in /  0mm 318 W/m2
12:49 60.3 °F /  15.7 °C 50.4 °F /  10.2 °C 29.91in /  1012.8hPa WNW 12.6mph /  20.3km/h 28mph /  45.1km/h 70% 0.00in /  0mm 427 W/m2
12:54 60.4 °F /  15.8 °C 50.6 °F /  10.3 °C 29.91in /  1012.8hPa West 12.1mph /  19.5km/h 24mph /  38.6km/h 70.2% 0.00in /  0mm 362 W/m2
12:59 60.6 °F /  15.9 °C 51 °F /  10.6 °C 29.91in /  1012.8hPa West 12.6mph /  20.3km/h 27mph /  43.5km/h 70.8% 0.00in /  0mm 427 W/m2
13:04 60.5 °F /  15.8 °C 50.8 °F /  10.4 °C 29.91in /  1012.8hPa West 10.6mph /  17.1km/h 22mph /  35.4km/h 70.4% 0.00in /  0mm 376 W/m2
13:09 60.7 °F /  15.9 °C 50.4 °F /  10.2 °C 29.91in /  1012.8hPa WNW 13mph /  20.9km/h 25mph /  40.2km/h 68.8% 0.00in /  0mm 434 W/m2
13:14 61.2 °F /  16.2 °C 50.9 °F /  10.5 °C 29.91in /  1012.8hPa WNW 15mph /  24.1km/h 24mph /  38.6km/h 69% 0.00in /  0mm 422 W/m2
13:19 60.9 °F /  16.1 °C 50.5 °F /  10.3 °C 29.91in /  1012.8hPa WNW 12.8mph /  20.6km/h 22mph /  35.4km/h 68.8% 0.00in /  0mm 390 W/m2
13:24 60.7 °F /  15.9 °C 50.3 °F /  10.2 °C 29.91in /  1012.8hPa West 18.2mph /  29.3km/h 27mph /  43.5km/h 68.6% 0.00in /  0mm 439 W/m2
13:29 60.4 °F /  15.8 °C 50.2 °F /  10.1 °C 29.91in /  1012.8hPa WNW 14.1mph /  22.7km/h 26mph /  41.8km/h 69.2% 0.00in /  0mm 418 W/m2
13:34 60.7 °F /  15.9 °C 50.6 °F /  10.3 °C 29.91in /  1012.8hPa West 13.8mph /  22.2km/h 25mph /  40.2km/h 69.6% 0.00in /  0mm 1090 W/m2
13:39 60.8 °F /  16 °C 50.9 °F /  10.5 °C 29.91in /  1012.8hPa WNW 14.8mph /  23.8km/h 23mph /  37km/h 69.8% 0.00in /  0mm 381 W/m2
13:44 60.5 °F /  15.8 °C 50.6 °F /  10.3 °C 29.92in /  1013.1hPa West 13mph /  20.9km/h 25mph /  40.2km/h 70% 0.00in /  0mm 348 W/m2
13:49 60.3 °F /  15.7 °C 50.9 °F /  10.5 °C 29.92in /  1013.1hPa West 12.5mph /  20.1km/h 21mph /  33.8km/h 71% 0.00in /  0mm 316 W/m2
13:54 60.4 °F /  15.8 °C 50.7 °F /  10.4 °C 29.92in /  1013.1hPa WNW 15.6mph /  25.1km/h 24mph /  38.6km/h 70.3% 0.00in /  0mm 359 W/m2
13:59 60.4 °F /  15.8 °C 50.5 °F /  10.3 °C 29.92in /  1013.1hPa West 15.4mph /  24.8km/h 26mph /  41.8km/h 70% 0.00in /  0mm 439 W/m2
14:04 61 °F /  16.1 °C 51.1 °F /  10.6 °C 29.92in /  1013.1hPa West 15.4mph /  24.8km/h 27mph /  43.5km/h 69.8% 0.00in /  0mm 1137 W/m2
14:09 61.7 °F /  16.5 °C 51.3 °F /  10.7 °C 29.91in /  1012.8hPa WNW 12mph /  19.3km/h 22mph /  35.4km/h 68.8% 0.00in /  0mm 1137 W/m2
14:14 61.3 °F /  16.3 °C 51 °F /  10.6 °C 29.92in /  1013.1hPa WNW 14mph /  22.5km/h 28mph /  45.1km/h 69% 0.00in /  0mm 390 W/m2
14:19 61.1 °F /  16.2 °C 51 °F /  10.6 °C 29.91in /  1012.8hPa WNW 12.6mph /  20.3km/h 26mph /  41.8km/h 69.4% 0.00in /  0mm 330 W/m2
14:24 62.5 °F /  16.9 °C 52.3 °F /  11.3 °C 29.92in /  1013.1hPa West 7.4mph /  11.9km/h 24mph /  38.6km/h 69.2% 0.00in /  0mm 1079 W/m2
14:29 62.7 °F /  17.1 °C 51.4 °F /  10.8 °C 29.92in /  1013.1hPa West 14.6mph /  23.5km/h 26mph /  41.8km/h 66.6% 0.00in /  0mm 434 W/m2
14:34 61.4 °F /  16.3 °C 51.2 °F /  10.7 °C 29.92in /  1013.1hPa West 15.6mph /  25.1km/h 27mph /  43.5km/h 69% 0.00in /  0mm 545 W/m2
14:39 60.9 °F /  16.1 °C 51.2 °F /  10.7 °C 29.92in /  1013.1hPa WNW 12.2mph /  19.6km/h 30mph /  48.3km/h 70.4% 0.00in /  0mm 1005 W/m2
14:44 62.1 °F /  16.7 °C 52 °F /  11.1 °C 29.92in /  1013.1hPa West 11.2mph /  18km/h 27mph /  43.5km/h 69.2% 0.00in /  0mm 1125 W/m2
14:49 61.6 °F /  16.4 °C 51 °F /  10.6 °C 29.92in /  1013.1hPa West 16.2mph /  26.1km/h 27mph /  43.5km/h 68.2% 0.00in /  0mm 404 W/m2
14:54 62 °F /  16.7 °C 51.1 °F /  10.6 °C 29.92in /  1013.1hPa WNW 11.8mph /  19km/h 23mph /  37km/h 67.5% 0.00in /  0mm 891 W/m2
14:59 62.4 °F /  16.9 °C 50.3 °F /  10.2 °C 29.92in /  1013.1hPa WSW 15.4mph /  24.8km/h 26mph /  41.8km/h 64.6% 0.00in /  0mm 891 W/m2
15:04 62 °F /  16.7 °C 50.3 °F /  10.2 °C 29.92in /  1013.1hPa West 17mph /  27.4km/h 26mph /  41.8km/h 65.6% 0.00in /  0mm 991 W/m2
15:09 62 °F /  16.7 °C 50.3 °F /  10.2 °C 29.92in /  1013.1hPa WNW 14.2mph /  22.9km/h 29mph /  46.7km/h 65.4% 0.00in /  0mm 991 W/m2
15:14 62.3 °F /  16.8 °C 50.8 °F /  10.4 °C 29.92in /  1013.1hPa WNW 14.2mph /  22.9km/h 29mph /  46.7km/h 66% 0.00in /  0mm 969 W/m2
15:19 62.4 °F /  16.9 °C 50.9 °F /  10.5 °C 29.92in /  1013.1hPa West 17.2mph /  27.7km/h 31mph /  49.9km/h 66% 0.00in /  0mm 946 W/m2
15:24 62.9 °F /  17.2 °C 51.7 °F /  10.9 °C 29.92in /  1013.1hPa WNW 15.4mph /  24.8km/h 31mph /  49.9km/h 67% 0.00in /  0mm 926 W/m2
15:29 62.9 °F /  17.2 °C 52 °F /  11.1 °C 29.92in /  1013.1hPa West 9.8mph /  15.8km/h 22mph /  35.4km/h 67.6% 0.00in /  0mm 933 W/m2
15:34 62.6 °F /  17 °C 51.4 °F /  10.8 °C 29.93in /  1013.4hPa West 14.8mph /  23.8km/h 28mph /  45.1km/h 66.8% 0.00in /  0mm 396 W/m2
15:39 62 °F /  16.7 °C 51.1 °F /  10.6 °C 29.93in /  1013.4hPa West 13.9mph /  22.4km/h 28mph /  45.1km/h 67.4% 0.00in /  0mm 946 W/m2
15:44 62.3 °F /  16.8 °C 50.9 °F /  10.5 °C 29.93in /  1013.4hPa WNW 14.6mph /  23.5km/h 32mph /  51.5km/h 66.4% 0.00in /  0mm 870 W/m2
15:49 62 °F /  16.7 °C 50.5 °F /  10.3 °C 29.93in /  1013.4hPa NW 14mph /  22.5km/h 32mph /  51.5km/h 66.2% 0.00in /  0mm 315 W/m2
15:54 61.7 °F /  16.5 °C 50.3 °F /  10.2 °C 29.93in /  1013.4hPa WNW 14.2mph /  22.9km/h 28mph /  45.1km/h 66.2% 0.00in /  0mm 299 W/m2
15:59 61.2 °F /  16.2 °C 50.5 °F /  10.3 °C 29.93in /  1013.4hPa West 12mph /  19.3km/h 27mph /  43.5km/h 67.6% 0.00in /  0mm 218 W/m2
16:04 60.8 °F /  16 °C 50.5 °F /  10.3 °C 29.94in /  1013.8hPa West 10.6mph /  17.1km/h 24mph /  38.6km/h 69% 0.00in /  0mm 239 W/m2
16:09 60.1 °F /  15.6 °C 50.5 °F /  10.3 °C 29.93in /  1013.4hPa WNW 13mph /  20.9km/h 27mph /  43.5km/h 70.6% 0.00in /  0mm 731 W/m2
16:14 60.6 °F /  15.9 °C 51.2 °F /  10.7 °C 29.93in /  1013.4hPa WNW 11.7mph /  18.8km/h 20mph /  32.2km/h 71% 0.00in /  0mm 330 W/m2
16:19 60.6 °F /  15.9 °C 50.6 °F /  10.3 °C 29.94in /  1013.8hPa West 15mph /  24.1km/h 24mph /  38.6km/h 69.8% 0.00in /  0mm 279 W/m2
16:24 60.8 °F /  16 °C 50.6 °F /  10.3 °C 29.94in /  1013.8hPa West 10.5mph /  16.9km/h 25mph /  40.2km/h 69.2% 0.00in /  0mm 410 W/m2
16:29 61 °F /  16.1 °C 50.7 °F /  10.4 °C 29.93in /  1013.4hPa WNW 15.3mph /  24.6km/h 28mph /  45.1km/h 69% 0.00in /  0mm 318 W/m2
16:34 61.5 °F /  16.4 °C 51.1 °F /  10.6 °C 29.93in /  1013.4hPa West 13.8mph /  22.2km/h 23mph /  37km/h 68.4% 0.00in /  0mm 745 W/m2
16:39 61.8 °F /  16.6 °C 50.8 °F /  10.4 °C 29.93in /  1013.4hPa West 15.8mph /  25.4km/h 25mph /  40.2km/h 67.2% 0.00in /  0mm 745 W/m2
16:44 61.9 °F /  16.6 °C 51.2 °F /  10.7 °C 29.94in /  1013.8hPa WNW 14.8mph /  23.8km/h 30mph /  48.3km/h 68% 0.00in /  0mm 823 W/m2
16:49 61.9 °F /  16.6 °C 50.7 °F /  10.4 °C 29.94in /  1013.8hPa West 15.6mph /  25.1km/h 31mph /  49.9km/h 67% 0.00in /  0mm 784 W/m2
16:54 61.8 °F /  16.6 °C 50.9 °F /  10.5 °C 29.93in /  1013.4hPa WNW 18.2mph /  29.3km/h 28mph /  45.1km/h 67.4% 0.00in /  0mm 744 W/m2
16:59 61.4 °F /  16.3 °C 50.8 °F /  10.4 °C 29.93in /  1013.4hPa West 15.6mph /  25.1km/h 27mph /  43.5km/h 68.1% 0.00in /  0mm 744 W/m2
17:04 61.8 °F /  16.6 °C 51.3 °F /  10.7 °C 29.93in /  1013.4hPa WNW 16.4mph /  26.4km/h 24mph /  38.6km/h 68.4% 0.00in /  0mm 647 W/m2
17:09 61.9 °F /  16.6 °C 51.3 °F /  10.7 °C 29.93in /  1013.4hPa WNW 11.5mph /  18.5km/h 25mph /  40.2km/h 68.2% 0.00in /  0mm 664 W/m2
17:14 62.1 °F /  16.7 °C 51 °F /  10.6 °C 29.93in /  1013.4hPa West 11.8mph /  19km/h 23mph /  37km/h 67% 0.00in /  0mm 682 W/m2
17:19 62 °F /  16.7 °C 51.1 °F /  10.6 °C 29.93in /  1013.4hPa West 11.8mph /  19km/h 26mph /  41.8km/h 67.4% 0.00in /  0mm 617 W/m2
17:24 61.9 °F /  16.6 °C 50.3 °F /  10.2 °C 29.93in /  1013.4hPa WNW 13.6mph /  21.9km/h 27mph /  43.5km/h 65.8% 0.00in /  0mm 605 W/m2
17:29 61.3 °F /  16.3 °C 50.4 °F /  10.2 °C 29.93in /  1013.4hPa West 14mph /  22.5km/h 29mph /  46.7km/h 67% 0.00in /  0mm 612 W/m2
17:34 61 °F /  16.1 °C 50.3 °F /  10.2 °C 29.93in /  1013.4hPa WNW 16.6mph /  26.7km/h 33mph /  53.1km/h 67.6% 0.00in /  0mm 584 W/m2
17:39 60.5 °F /  15.8 °C 50 °F /  10 °C 29.93in /  1013.4hPa West 11.4mph /  18.3km/h 25mph /  40.2km/h 68.2% 0.00in /  0mm 253 W/m2
17:44 60.3 °F /  15.7 °C 50.6 °F /  10.3 °C 29.93in /  1013.4hPa WNW 9.4mph /  15.1km/h 30mph /  48.3km/h 70.4% 0.00in /  0mm 531 W/m2
17:49 60.4 °F /  15.8 °C 51.1 °F /  10.6 °C 29.93in /  1013.4hPa WNW 11.1mph /  17.9km/h 27mph /  43.5km/h 71% 0.00in /  0mm 531 W/m2
17:54 60.5 °F /  15.8 °C 51.1 °F /  10.6 °C 29.93in /  1013.4hPa WNW 16.6mph /  26.7km/h 27mph /  43.5km/h 71% 0.00in /  0mm 570 W/m2
17:59 60.3 °F /  15.7 °C 51.1 °F /  10.6 °C 29.93in /  1013.4hPa WNW 11.8mph /  19km/h 23mph /  37km/h 71.6% 0.00in /  0mm 160 W/m2
18:04 59.8 °F /  15.4 °C 50.8 °F /  10.4 °C 29.93in /  1013.4hPa WNW 12.4mph /  20km/h 29mph /  46.7km/h 72% 0.00in /  0mm 128 W/m2
18:09 59.5 °F /  15.3 °C 50.9 °F /  10.5 °C 29.93in /  1013.4hPa West 14.6mph /  23.5km/h 27mph /  43.5km/h 73% 0.00in /  0mm 199 W/m2
18:14 59.5 °F /  15.3 °C 50.6 °F /  10.3 °C 29.93in /  1013.4hPa West 16mph /  25.7km/h 28mph /  45.1km/h 72.4% 0.00in /  0mm 490 W/m2
18:18 60 °F /  15.6 °C 51 °F /  10.6 °C 29.93in /  1013.4hPa West 11.3mph /  18.2km/h 26mph /  41.8km/h 72% 0.00in /  0mm 385 W/m2
18:24 59.9 °F /  15.5 °C 50.8 °F /  10.4 °C 29.94in /  1013.8hPa WNW 14.4mph /  23.2km/h 32mph /  51.5km/h 71.8% 0.00in /  0mm 385 W/m2
18:29 59.9 °F /  15.5 °C 50.9 °F /  10.5 °C 29.93in /  1013.4hPa WNW 13.2mph /  21.2km/h 25mph /  40.2km/h 72% 0.00in /  0mm 272 W/m2
18:34 59.9 °F /  15.5 °C 50.9 °F /  10.5 °C 29.93in /  1013.4hPa West 10.1mph /  16.3km/h 20mph /  32.2km/h 72% 0.00in /  0mm 142 W/m2
18:39 60.2 °F /  15.7 °C 51.2 °F /  10.7 °C 29.93in /  1013.4hPa WNW 9.4mph /  15.1km/h 23mph /  37km/h 72% 0.00in /  0mm 496 W/m2
18:44 60.2 °F /  15.7 °C 51 °F /  10.6 °C 29.93in /  1013.4hPa WNW 10.4mph /  16.7km/h 22mph /  35.4km/h 71.4% 0.00in /  0mm 250 W/m2
18:49 59.9 °F /  15.5 °C 50.8 °F /  10.4 °C 29.93in /  1013.4hPa West 11mph /  17.7km/h 21mph /  33.8km/h 71.8% 0.00in /  0mm 176 W/m2
18:54 59.5 °F /  15.3 °C 50.6 °F /  10.3 °C 29.94in /  1013.8hPa West 16.8mph /  27km/h 29mph /  46.7km/h 72.2% 0.00in /  0mm 183 W/m2
18:59 59.4 °F /  15.2 °C 50.7 °F /  10.4 °C 29.94in /  1013.8hPa West 13.8mph /  22.2km/h 26mph /  41.8km/h 73% 0.00in /  0mm 322 W/m2
19:04 58.9 °F /  14.9 °C 50.3 °F /  10.2 °C 29.94in /  1013.8hPa West 8.9mph /  14.3km/h 24mph /  38.6km/h 73.2% 0.00in /  0mm 156 W/m2
19:09 58.7 °F /  14.8 °C 50.5 °F /  10.3 °C 29.94in /  1013.8hPa WNW 13.7mph /  22km/h 25mph /  40.2km/h 74% 0.00in /  0mm 127 W/m2
19:14 58.7 °F /  14.8 °C 50.4 °F /  10.2 °C 29.94in /  1013.8hPa West 14.6mph /  23.5km/h 31mph /  49.9km/h 74% 0.00in /  0mm 313 W/m2
19:19 58.8 °F /  14.9 °C 50.5 °F /  10.3 °C 29.94in /  1013.8hPa NW 15.6mph /  25.1km/h 31mph /  49.9km/h 74% 0.00in /  0mm 309 W/m2
19:24 58.8 °F /  14.9 °C 50.4 °F /  10.2 °C 29.95in /  1014.1hPa NW 14.4mph /  23.2km/h 28mph /  45.1km/h 73.4% 0.00in /  0mm 243 W/m2
19:29 58.6 °F /  14.8 °C 50.4 °F /  10.2 °C 29.94in /  1013.8hPa WNW 18.2mph /  29.3km/h 30mph /  48.3km/h 74% 0.00in /  0mm 232 W/m2
19:34 58.7 °F /  14.8 °C 50.6 °F /  10.3 °C 29.94in /  1013.8hPa WNW 13.3mph /  21.4km/h 21mph /  33.8km/h 74.6% 0.00in /  0mm 241 W/m2
19:39 58.8 °F /  14.9 °C 50.9 °F /  10.5 °C 29.94in /  1013.8hPa WNW 11.6mph /  18.7km/h 21mph /  33.8km/h 75% 0.00in /  0mm 214 W/m2
19:44 58.6 °F /  14.8 °C 50.7 °F /  10.4 °C 29.95in /  1014.1hPa WNW 14.1mph /  22.7km/h 26mph /  41.8km/h 75% 0.00in /  0mm 176 W/m2
19:49 58.5 °F /  14.7 °C 50.5 °F /  10.3 °C 29.95in /  1014.1hPa WNW 17.4mph /  28km/h 27mph /  43.5km/h 75% 0.00in /  0mm 155 W/m2
19:54 58.4 °F /  14.7 °C 50.4 °F /  10.2 °C 29.95in /  1014.1hPa WNW 14.1mph /  22.7km/h 25mph /  40.2km/h 75% 0.00in /  0mm 167 W/m2
19:59 58.3 °F /  14.6 °C 50.4 °F /  10.2 °C 29.95in /  1014.1hPa West 13.4mph /  21.6km/h 21mph /  33.8km/h 75% 0.00in /  0mm 102 W/m2
20:04 58.1 °F /  14.5 °C 50.2 °F /  10.1 °C 29.95in /  1014.1hPa WNW 9.3mph /  15km/h 23mph /  37km/h 75% 0.00in /  0mm 111 W/m2
20:09 58.2 °F /  14.6 °C 50.5 °F /  10.3 °C 29.94in /  1013.8hPa WNW 10.6mph /  17.1km/h 23mph /  37km/h 75.6% 0.00in /  0mm 144 W/m2
20:14 58.3 °F /  14.6 °C 50.4 °F /  10.2 °C 29.94in /  1013.8hPa WNW 11.3mph /  18.2km/h 23mph /  37km/h 75% 0.00in /  0mm 137 W/m2
20:19 57.9 °F /  14.4 °C 50.4 °F /  10.2 °C 29.95in /  1014.1hPa West 10.2mph /  16.4km/h 20mph /  32.2km/h 76% 0.00in /  0mm 76 W/m2
20:24 57.7 °F /  14.3 °C 50.1 °F /  10.1 °C 29.95in /  1014.1hPa WNW 12.9mph /  20.8km/h 25mph /  40.2km/h 75.6% 0.00in /  0mm 74 W/m2
20:29 57.7 °F /  14.3 °C 49.8 °F /  9.9 °C 29.95in /  1014.1hPa WNW 12.2mph /  19.6km/h 25mph /  40.2km/h 75% 0.00in /  0mm 74 W/m2
20:34 57.7 °F /  14.3 °C 50 °F /  10 °C 29.95in /  1014.1hPa WNW 8.4mph /  13.5km/h 25mph /  40.2km/h 75.6% 0.00in /  0mm 67 W/m2
20:39 57.6 °F /  14.2 °C 50.1 °F /  10.1 °C 29.95in /  1014.1hPa WNW 10.2mph /  16.4km/h 21mph /  33.8km/h 76% 0.00in /  0mm 44 W/m2
20:43 57.6 °F /  14.2 °C 50 °F /  10 °C 29.96in /  1014.4hPa West 14.3mph /  23km/h 24mph /  38.6km/h 76% 0.00in /  0mm 32 W/m2
20:49 57.4 °F /  14.1 °C 49.8 °F /  9.9 °C 29.96in /  1014.4hPa West 15mph /  24.1km/h 23mph /  37km/h 76% 0.00in /  0mm 35 W/m2
20:54 57.3 °F /  14.1 °C 49.7 °F /  9.8 °C 29.96in /  1014.4hPa WNW 11.4mph /  18.3km/h 19mph /  30.6km/h 76% 0.00in /  0mm 28 W/m2
20:59 57.1 °F /  13.9 °C 49.6 °F /  9.8 °C 29.96in /  1014.4hPa NW 11.3mph /  18.2km/h 22mph /  35.4km/h 76% 0.00in /  0mm 23 W/m2
21:04 57 °F /  13.9 °C 49.5 °F /  9.7 °C 29.96in /  1014.4hPa WNW 10.4mph /  16.7km/h 20mph /  32.2km/h 76% 0.00in /  0mm 23 W/m2
21:09 57 °F /  13.9 °C 49.5 °F /  9.7 °C 29.96in /  1014.4hPa WNW 10.8mph /  17.4km/h 25mph /  40.2km/h 76% 0.00in /  0mm 11 W/m2
21:14 57 °F /  13.9 °C 49.5 °F /  9.7 °C 29.96in /  1014.4hPa WNW 10.4mph /  16.7km/h 23mph /  37km/h 76% 0.00in /  0mm 11 W/m2
21:19 56.9 °F /  13.8 °C 49.4 °F /  9.7 °C 29.96in /  1014.4hPa West 12.8mph /  20.6km/h 23mph /  37km/h 76% 0.00in /  0mm 7 W/m2
21:24 56.8 °F /  13.8 °C 49.3 °F /  9.6 °C 29.96in /  1014.4hPa WNW 7.6mph /  12.2km/h 15mph /  24.1km/h 76% 0.00in /  0mm 5 W/m2
21:29 56.8 °F /  13.8 °C 49.5 °F /  9.7 °C 29.96in /  1014.4hPa West 8.2mph /  13.2km/h 20mph /  32.2km/h 76.8% 0.00in /  0mm 0 W/m2
21:34 56.7 °F /  13.7 °C 49.5 °F /  9.7 °C 29.96in /  1014.4hPa West 11.5mph /  18.5km/h 20mph /  32.2km/h 77% 0.00in /  0mm 0 W/m2
21:39 56.7 °F /  13.7 °C 49.5 °F /  9.7 °C 29.97in /  1014.8hPa WNW 10.7mph /  17.2km/h 16mph /  25.7km/h 77% 0.00in /  0mm 0 W/m2
21:44 56.7 °F /  13.7 °C 49.5 °F /  9.7 °C 29.97in /  1014.8hPa WNW 9.2mph /  14.8km/h 17mph /  27.4km/h 77% 0.00in /  0mm 0 W/m2
21:49 56.7 °F /  13.7 °C 49.5 °F /  9.7 °C 29.98in /  1015.1hPa WNW 7.8mph /  12.6km/h 18mph /  29km/h 77% 0.00in /  0mm 0 W/m2
21:54 56.7 °F /  13.7 °C 49.5 °F /  9.7 °C 29.98in /  1015.1hPa West 8.5mph /  13.7km/h 15mph /  24.1km/h 77% 0.00in /  0mm 0 W/m2
21:59 56.5 °F /  13.6 °C 49.3 °F /  9.6 °C 29.97in /  1014.8hPa WNW 8.8mph /  14.2km/h 15mph /  24.1km/h 77% 0.00in /  0mm 0 W/m2
22:04 56.5 °F /  13.6 °C 49.3 °F /  9.6 °C 29.97in /  1014.8hPa West 9mph /  14.5km/h 17mph /  27.4km/h 77% 0.00in /  0mm 0 W/m2
22:09 56.4 °F /  13.6 °C 49.2 °F /  9.6 °C 29.97in /  1014.8hPa WNW 8.8mph /  14.2km/h 14mph /  22.5km/h 77% 0.00in /  0mm 0 W/m2
22:14 56.3 °F /  13.5 °C 49.3 °F /  9.6 °C 29.97in /  1014.8hPa WNW 9.2mph /  14.8km/h 17mph /  27.4km/h 77.4% 0.00in /  0mm 0 W/m2
22:19 56.2 °F /  13.4 °C 49.4 °F /  9.7 °C 29.97in /  1014.8hPa WNW 7.3mph /  11.7km/h 15mph /  24.1km/h 78% 0.00in /  0mm 0 W/m2
22:24 56.2 °F /  13.4 °C 49.4 °F /  9.7 °C 29.97in /  1014.8hPa West 11.2mph /  18km/h 17mph /  27.4km/h 78% 0.00in /  0mm 0 W/m2
22:29 56.1 °F /  13.4 °C 49.3 °F /  9.6 °C 29.97in /  1014.8hPa WNW 7.1mph /  11.4km/h 19mph /  30.6km/h 78% 0.00in /  0mm 0 W/m2
22:34 56.1 °F /  13.4 °C 49.6 °F /  9.8 °C 29.97in /  1014.8hPa WNW 7.5mph /  12.1km/h 19mph /  30.6km/h 79% 0.00in /  0mm 0 W/m2
22:39 56.1 °F /  13.4 °C 49.6 °F /  9.8 °C 29.97in /  1014.8hPa West 6.3mph /  10.1km/h 17mph /  27.4km/h 79% 0.00in /  0mm 0 W/m2
22:44 56.1 °F /  13.4 °C 49.6 °F /  9.8 °C 29.97in /  1014.8hPa WNW 8.4mph /  13.5km/h 19mph /  30.6km/h 79% 0.00in /  0mm 0 W/m2
22:49 56.1 °F /  13.4 °C 49.6 °F /  9.8 °C 29.97in /  1014.8hPa West 7.7mph /  12.4km/h 19mph /  30.6km/h 79% 0.00in /  0mm 0 W/m2
22:54 56.2 °F /  13.4 °C 49.7 °F /  9.8 °C 29.97in /  1014.8hPa WNW 8.4mph /  13.5km/h 22mph /  35.4km/h 79% 0.00in /  0mm 0 W/m2
22:59 56.3 °F /  13.5 °C 49.6 °F /  9.8 °C 29.98in /  1015.1hPa WNW 11.4mph /  18.3km/h 19mph /  30.6km/h 78.4% 0.00in /  0mm 0 W/m2
23:04 56.3 °F /  13.5 °C 49.5 °F /  9.7 °C 29.98in /  1015.1hPa West 11.8mph /  19km/h 19mph /  30.6km/h 78% 0.00in /  0mm 0 W/m2
23:09 56.3 °F /  13.5 °C 49.3 °F /  9.6 °C 29.98in /  1015.1hPa WNW 8mph /  12.9km/h 19mph /  30.6km/h 77.4% 0.00in /  0mm 0 W/m2
23:14 56.3 °F /  13.5 °C 49.1 °F /  9.5 °C 29.98in /  1015.1hPa WNW 10.2mph /  16.4km/h 17mph /  27.4km/h 77% 0.00in /  0mm 0 W/m2
23:19 56.3 °F /  13.5 °C 49.1 °F /  9.5 °C 29.99in /  1015.5hPa WNW 8.2mph /  13.2km/h 15mph /  24.1km/h 77% 0.00in /  0mm 0 W/m2
23:24 56.1 °F /  13.4 °C 48.9 °F /  9.4 °C 29.99in /  1015.5hPa West 8.8mph /  14.2km/h 14mph /  22.5km/h 77% 0.00in /  0mm 0 W/m2
23:29 56.3 °F /  13.5 °C 49.3 °F /  9.6 °C 29.99in /  1015.5hPa WNW 7.4mph /  11.9km/h 16mph /  25.7km/h 77.6% 0.00in /  0mm 0 W/m2
23:34 56.3 °F /  13.5 °C 49.1 °F /  9.5 °C 29.99in /  1015.5hPa WNW 5.4mph /  8.7km/h 16mph /  25.7km/h 77% 0.00in /  0mm 0 W/m2
23:39 56.3 °F /  13.5 °C 49.3 °F /  9.6 °C 29.99in /  1015.5hPa West 10mph /  16.1km/h 18mph /  29km/h 77.6% 0.00in /  0mm 0 W/m2
23:44 56.3 °F /  13.5 °C 49.5 °F /  9.7 °C 29.99in /  1015.5hPa West 9.4mph /  15.1km/h 15mph /  24.1km/h 78% 0.00in /  0mm 0 W/m2
23:49 56.1 °F /  13.4 °C 49.3 °F /  9.6 °C 29.99in /  1015.5hPa WNW 8mph /  12.9km/h 14mph /  22.5km/h 78% 0.00in /  0mm 0 W/m2
23:54 56.1 °F /  13.4 °C 49.3 °F /  9.6 °C 29.99in /  1015.5hPa West 8.5mph /  13.7km/h 16mph /  25.7km/h 78% 0.00in /  0mm 0 W/m2
23:59 56 °F /  13.3 °C 49.2 °F /  9.6 °C 29.99in /  1015.5hPa West 9.4mph /  15.1km/h 18mph /  29km/h 78% 0.00in /  0mm 0 W/m2
Bath Spa Weather
Compliments of Weather Underground - 2 mb